Time;durP1;ratioP1;P1;durP2;ratioP2;P2;SDS_P1;SDS_P2;PMS_P1;PMS_P2;Temp;Humidity;BMP_temperature;BMP_pressure;BME280_temperature;BME280_humidity;BME280_pressure;Samples;Min_cycle;Max_cycle;Signal;HPM_P1;HPM_P2
2022/12/27 00:00:23;;;;;;;21.48;13.30;;;;;;;7.25;100.00;99849.98;1632353;87;27653;-65
2022/12/27 00:02:51;;;;;;;24.77;15.83;;;;;;;7.24;100.00;99841.66;1662617;86;25494;-65
2022/12/27 00:05:18;;;;;;;24.60;14.58;;;;;;;7.25;100.00;99847.83;1662462;86;25452;-65
2022/12/27 00:07:44;;;;;;;31.70;19.60;;;;;;;7.24;100.00;99850.28;1662430;86;25464;-64
2022/12/27 00:10:11;;;;;;;23.90;14.63;;;;;;;7.24;100.00;99846.25;1662474;86;25464;-64
2022/12/27 00:12:37;;;;;;;22.87;14.35;;;;;;;7.23;100.00;99849.47;1662444;86;27487;-67
2022/12/27 00:15:05;;;;;;;29.60;18.00;;;;;;;7.22;100.00;99845.72;1639741;86;25812;-66
2022/12/27 00:17:31;;;;;;;55.55;33.33;;;;;;;7.21;100.00;99840.11;1662510;86;25601;-64
2022/12/27 00:19:58;;;;;;;46.50;33.40;;;;;;;7.20;100.00;99846.58;1662470;86;25625;-64
2022/12/27 00:22:24;;;;;;;90.35;82.65;;;;;;;7.21;100.00;99848.18;1639868;86;25628;-63
2022/12/27 00:24:50;;;;;;;94.00;86.45;;;;;;;7.20;100.00;99845.23;1662463;86;27473;-64
2022/12/27 00:27:17;;;;;;;95.77;88.33;;;;;;;7.18;100.00;99840.14;1662400;86;25492;-63
2022/12/27 00:29:43;;;;;;;92.02;84.80;;;;;;;7.17;100.00;99836.41;1662489;86;25695;-64
2022/12/27 00:32:09;;;;;;;90.72;83.55;;;;;;;7.17;100.00;99832.37;1662418;86;25592;-63
2022/12/27 00:34:35;;;;;;;90.42;83.70;;;;;;;7.15;100.00;99829.19;1674437;84;25629;-64
2022/12/27 00:37:02;;;;;;;83.60;76.65;;;;;;;7.14;100.00;99828.39;1700540;84;27617;-63
2022/12/27 00:39:28;;;;;;;24.55;13.88;;;;;;;7.14;100.00;99831.64;1700466;84;25878;-64
2022/12/27 00:41:54;;;;;;;28.00;15.13;;;;;;;7.11;100.00;99832.46;1700496;84;25545;-64
2022/12/27 00:44:21;;;;;;;23.67;13.90;;;;;;;7.10;100.00;99833.58;1700485;84;25600;-64
2022/12/27 00:46:47;;;;;;;92.53;85.55;;;;;;;7.08;100.00;99837.64;1700578;84;25558;-64
2022/12/27 00:49:13;;;;;;;95.35;88.00;;;;;;;7.06;100.00;99834.45;1700521;84;29753;-64
2022/12/27 00:51:39;;;;;;;92.97;85.75;;;;;;;7.04;100.00;99834.75;1700467;84;25454;-64
2022/12/27 00:54:06;;;;;;;94.47;87.15;;;;;;;7.03;100.00;99844.45;1700506;84;25541;-64
2022/12/27 00:56:32;;;;;;;92.65;85.38;;;;;;;7.01;100.00;99849.34;1700457;83;25476;-64
2022/12/27 00:59:03;;;;;;;93.47;86.00;;;;;;;7.00;100.00;99844.52;1700587;84;25641;-64
2022/12/27 01:01:34;;;;;;;93.37;86.05;;;;;;;7.00;100.00;99857.95;1700577;84;27493;-64
2022/12/27 01:04:02;;;;;;;29.10;16.97;;;;;;;7.00;100.00;99861.17;1700471;84;25450;-64
2022/12/27 01:06:32;;;;;;;26.12;15.58;;;;;;;7.00;100.00;99855.27;1700519;84;25619;-64
2022/12/27 01:09:01;;;;;;;23.62;15.23;;;;;;;6.99;100.00;99854.22;1700521;84;25471;-65
2022/12/27 01:11:29;;;;;;;25.30;14.98;;;;;;;6.97;100.00;99849.13;1700690;84;25657;-64
2022/12/27 01:13:59;;;;;;;27.43;17.20;;;;;;;6.97;100.00;99844.31;1700763;84;27567;-62
2022/12/27 01:16:28;;;;;;;25.45;20.08;;;;;;;6.97;100.00;99845.66;1700475;84;25446;-64
2022/12/27 01:18:56;;;;;;;74.35;68.22;;;;;;;6.97;100.00;99841.63;1700687;84;25371;-65
2022/12/27 01:21:24;;;;;;;94.15;86.82;;;;;;;6.96;100.00;99836.77;1700504;84;25533;-64
2022/12/27 01:23:52;;;;;;;95.15;87.62;;;;;;;6.97;100.00;99842.96;1670670;84;25571;-65
2022/12/27 01:26:22;;;;;;;99.20;91.30;;;;;;;6.99;100.00;99842.12;1700532;84;27180;-63
2022/12/27 01:28:50;;;;;;;94.62;86.80;;;;;;;6.98;100.00;99849.39;1700482;84;25698;-63
2022/12/27 01:31:30;;;;;;;97.70;90.05;;;;;;;7.00;100.00;99841.82;1700523;84;25549;-64
2022/12/27 01:33:59;;;;;;;93.65;86.55;;;;;;;6.99;100.00;99840.77;1699429;84;25619;-63
2022/12/27 01:36:29;;;;;;;97.53;89.92;;;;;;;7.01;100.00;99844.74;1700522;84;25635;-64
2022/12/27 01:38:55;;;;;;;;;;;;;;;7.01;100.00;99837.23;1703058;84;27476;-64
2022/12/27 01:44:59;;;;;;;93.90;86.55;;;;;;;7.02;100.00;99839.63;1700535;84;25478;-63
2022/12/27 01:47:35;;;;;;;92.42;84.97;;;;;;;7.02;100.00;99830.77;1692371;84;25609;-64
2022/12/27 01:50:37;;;;;;;93.33;85.95;;;;;;;7.04;100.00;99833.41;1700326;84;25611;-64
2022/12/27 01:53:30;;;;;;;92.33;85.10;;;;;;;7.04;100.00;99833.41;1700447;84;27457;-64
2022/12/27 01:56:07;;;;;;;95.83;88.15;;;;;;;7.05;100.00;99835.01;1694669;83;25423;-63
2022/12/27 01:59:03;;;;;;;94.10;86.55;;;;;;;7.06;100.00;99833.90;1716632;83;25619;-64
2022/12/27 02:01:35;;;;;;;93.15;85.95;;;;;;;7.08;100.00;99837.64;1716665;83;25626;-63
2022/12/27 02:04:07;;;;;;;92.35;85.25;;;;;;;7.08;100.00;99843.84;1716767;83;25586;-63
2022/12/27 02:06:36;;;;;;;95.17;87.67;;;;;;;7.08;100.00;99835.77;1716740;83;28110;-64
2022/12/27 02:09:17;;;;;;;69.77;63.68;;;;;;;7.10;100.00;99830.88;1716583;83;25608;-64
2022/12/27 02:11:50;;;;;;;27.65;13.30;;;;;;;7.12;100.00;99829.25;1716818;83;25398;-62
2022/12/27 02:14:27;;;;;;;23.35;12.80;;;;;;;7.11;100.00;99824.39;1716663;83;25591;-64
2022/12/27 02:16:58;;;;;;;20.55;12.78;;;;;;;7.13;100.00;99825.44;1704688;83;25426;-64
2022/12/27 02:19:41;;;;;;;21.50;12.18;;;;;;;7.13;100.00;99824.66;1716656;83;29720;-63
2022/12/27 02:26:06;;;;;;;23.45;12.75;;;;;;;7.14;100.00;99813.60;1716708;83;25541;-63
2022/12/27 02:29:00;;;;;;;19.45;12.45;;;;;;;7.13;100.00;99812.00;1716606;83;25560;-64
2022/12/27 02:31:47;;;;;;;20.92;13.32;;;;;;;7.14;100.00;99812.81;1692284;83;25659;-64
2022/12/27 02:34:19;;;;;;;22.30;13.48;;;;;;;7.15;100.00;99817.08;1716782;83;28039;-62
2022/12/27 02:36:48;;;;;;;24.82;19.42;;;;;;;7.15;100.00;99822.45;1716637;83;25596;-63
2022/12/27 02:39:17;;;;;;;65.15;59.77;;;;;;;7.15;100.00;99819.25;1716771;83;25423;-64
2022/12/27 02:53:14;;;;;;;94.80;87.47;;;;;;;7.18;100.00;99816.49;1716953;83;25537;-64
2022/12/27 02:59:06;;;;;;;38.25;34.92;;;;;;;7.17;100.00;99818.92;1716684;83;25437;-65
2022/12/27 03:05:02;;;;;;;90.07;83.40;;;;;;;7.15;100.00;99833.22;1716644;83;25474;-64
2022/12/27 03:08:06;;;;;;;89.52;82.80;;;;;;;7.13;100.00;99838.10;1716726;83;25515;-63
2022/12/27 03:16:56;;;;;;;89.85;83.05;;;;;;;7.03;100.00;99831.83;1693785;84;27454;-63
2022/12/27 03:25:30;;;;;;;;;;;;;;;6.97;100.00;99837.03;1696843;84;25666;-63
2022/12/27 03:33:50;;;;;;;;;;;;;;;6.91;100.00;99857.02;1696796;84;25462;-63
2022/12/27 03:39:25;;;;;;;82.55;76.82;;;;;;;6.72;100.00;99901.41;1694368;84;26103;-63
2022/12/27 03:44:49;;;;;;;19.37;17.98;;;;;;;6.19;100.00;99916.42;1664295;84;27421;-63
2022/12/27 03:47:41;;;;;;;2.95;2.10;;;;;;;5.88;100.00;99934.22;1694320;84;25537;-64
2022/12/27 03:50:28;;;;;;;6.10;2.15;;;;;;;5.64;100.00;99944.39;1696604;83;25489;-63
2022/12/27 03:53:12;;;;;;;2.58;2.00;;;;;;;5.42;100.00;99960.42;1716585;83;25459;-63
2022/12/27 03:55:41;;;;;;;5.15;2.05;;;;;;;5.22;100.00;99960.61;1716497;82;25482;-63
2022/12/27 03:58:08;;;;;;;4.05;2.22;;;;;;;5.04;100.00;99971.48;1678852;84;27546;-63
2022/12/27 04:00:38;;;;;;;5.92;1.80;;;;;;;4.90;100.00;99981.22;1700630;84;25535;-62
2022/12/27 04:03:05;;;;;;;5.15;1.37;;;;;;;4.74;100.00;99984.55;1700694;84;25658;-63
2022/12/27 04:05:32;;;;;;;3.15;1.40;;;;;;;4.59;100.00;99998.82;1700528;84;26112;-62
2022/12/27 04:35:42;;;;;;;6.40;2.12;;;;;;;3.63;100.00;100050.48;1700745;84;25466;-63
2022/12/27 04:38:10;;;;;;;7.95;1.77;;;;;;;3.59;100.00;100031.22;1700485;84;27608;-63
2022/12/27 04:57:21;;;;;;;5.37;1.87;;;;;;;3.43;100.00;100070.55;1700511;84;25578;-62
2022/12/27 05:02:36;;;;;;;80.60;75.12;;;;;;;3.39;100.00;100077.47;1700599;84;25378;-62
2022/12/27 05:05:03;;;;;;;8.35;4.42;;;;;;;3.34;100.00;100074.28;1700527;84;27630;-62
2022/12/27 05:15:49;;;;;;;4.53;1.52;;;;;;;3.27;100.00;100098.59;1628109;87;25220;-64
2022/12/27 05:18:17;;;;;;;3.45;0.93;;;;;;;3.24;100.00;100104.47;1627968;88;27578;-64
2022/12/27 05:20:43;;;;;;;5.07;1.43;;;;;;;3.20;100.00;100107.38;1628088;88;25558;-65
2022/12/27 05:26:01;;;;;;;10.23;1.70;;;;;;;3.13;100.00;100118.87;1628014;88;25685;-63
2022/12/27 05:28:30;;;;;;;5.37;1.55;;;;;;;3.09;100.00;100122.60;1628175;88;25242;-65
2022/12/27 05:31:02;;;;;;;6.30;1.67;;;;;;;3.05;100.00;100135.41;1627978;88;29662;-65
2022/12/27 05:33:31;;;;;;;3.72;1.77;;;;;;;3.02;100.00;100147.98;1627862;88;25463;-63
2022/12/27 05:36:01;;;;;;;10.95;1.77;;;;;;;2.99;100.00;100147.95;1628205;88;26040;-63
2022/12/27 05:38:27;;;;;;;5.12;1.95;;;;;;;2.96;100.00;100147.96;1628065;88;27612;-62
2022/12/27 05:41:07;;;;;;;5.03;1.20;;;;;;;2.93;100.00;100153.83;1628110;88;25308;-64
2022/12/27 05:43:39;;;;;;;10.70;3.08;;;;;;;2.90;100.00;100154.34;1606497;88;27450;-64
2022/12/27 05:46:20;;;;;;;7.70;3.45;;;;;;;2.88;100.00;100155.65;1628033;88;25466;-63
2022/12/27 05:48:50;;;;;;;11.15;6.45;;;;;;;2.86;100.00;100166.63;1606253;88;25500;-64
2022/12/27 05:51:21;;;;;;;9.95;5.47;;;;;;;2.82;100.00;100176.20;1628043;88;25617;-64
2022/12/27 05:53:50;;;;;;;13.95;12.60;;;;;;;2.78;100.00;100179.93;1659811;84;25502;-63
2022/12/27 05:56:21;;;;;;;23.12;21.37;;;;;;;2.73;100.00;100180.44;1700621;84;27466;-63
2022/12/27 05:58:51;;;;;;;46.02;42.73;;;;;;;2.72;100.00;100185.50;1710935;82;25948;-64
2022/12/27 06:01:21;;;;;;;80.92;75.22;;;;;;;2.69;100.00;100194.03;1716714;83;25576;-63
2022/12/27 06:03:47;;;;;;;82.42;76.22;;;;;;;2.65;100.00;100191.07;1691376;83;25493;-63
2022/12/27 06:06:21;;;;;;;81.80;76.10;;;;;;;2.60;100.00;100202.52;1716640;83;25600;-63
2022/12/27 06:08:51;;;;;;;52.78;49.40;;;;;;;2.57;100.00;100203.56;1716749;83;27576;-65
2022/12/27 06:11:22;;;;;;;49.20;46.08;;;;;;;2.52;100.00;100207.03;1691343;83;25569;-64
2022/12/27 06:13:54;;;;;;;83.07;77.00;;;;;;;2.49;100.00;100212.88;1691224;83;25657;-63
2022/12/27 06:16:40;;;;;;;80.80;74.97;;;;;;;2.48;100.00;100219.27;1750643;82;25421;-64
2022/12/27 06:19:06;;;;;;;83.97;77.90;;;;;;;2.42;100.00;100219.77;1754267;81;25397;-64
2022/12/27 06:21:34;;;;;;;80.65;74.67;;;;;;;2.39;100.00;100220.82;1750599;81;27513;-64
2022/12/27 06:24:01;;;;;;;78.40;72.65;;;;;;;2.37;100.00;100228.28;1732164;82;25692;-64
2022/12/27 06:26:33;;;;;;;83.27;77.35;;;;;;;2.38;100.00;100239.22;1732182;82;25664;-64
2022/12/27 06:29:10;;;;;;;82.97;76.75;;;;;;;2.38;100.00;100242.72;1732209;82;25593;-64
2022/12/27 06:31:36;;;;;;;81.08;75.75;;;;;;;2.37;100.00;100238.97;1732256;82;25619;-64
2022/12/27 06:34:04;;;;;;;85.07;78.90;;;;;;;2.37;100.00;100245.64;1732123;82;27509;-63
2022/12/27 06:36:32;;;;;;;81.10;75.50;;;;;;;2.37;100.00;100253.11;1731994;82;25765;-63
2022/12/27 06:39:05;;;;;;;82.97;77.20;;;;;;;2.35;100.00;100247.73;1732106;82;25584;-64
2022/12/27 06:41:41;;;;;;;80.90;75.15;;;;;;;2.32;100.00;100249.60;1732218;82;25594;-63
2022/12/27 06:44:15;;;;;;;85.50;79.25;;;;;;;2.31;100.00;100257.32;1729060;82;25477;-64
2022/12/27 06:46:43;;;;;;;64.27;59.83;;;;;;;2.28;100.00;100266.63;1732206;82;28075;-63
2022/12/27 06:49:11;;;;;;;8.70;1.87;;;;;;;2.26;100.00;100275.42;1732054;82;30940;-63
2022/12/27 06:51:37;;;;;;;12.07;2.20;;;;;;;2.21;100.00;100274.87;1732067;82;25444;-64
2022/12/27 06:54:03;;;;;;;12.03;2.67;;;;;;;2.19;100.00;100273.50;1732041;82;25950;-63
2022/12/27 06:56:35;;;;;;;11.03;3.27;;;;;;;2.17;100.00;100275.63;1707122;82;25596;-64
2022/12/27 06:59:12;;;;;;;7.47;3.42;;;;;;;2.15;100.00;100282.55;1732157;82;28468;-63
2022/12/27 07:01:42;;;;;;;10.78;3.87;;;;;;;2.13;100.00;100286.00;1732030;82;25428;-64
2022/12/27 07:04:10;;;;;;;13.20;4.47;;;;;;;2.12;100.00;100282.25;1732089;82;25217;-63
2022/12/27 07:06:38;;;;;;;9.40;3.95;;;;;;;2.11;100.00;100292.13;1731993;82;25549;-62
2022/12/27 07:09:10;;;;;;;11.85;4.78;;;;;;;2.10;100.00;100290.50;1732086;82;25443;-63
2022/12/27 07:11:38;;;;;;;16.00;5.30;;;;;;;2.10;100.00;100295.05;1707112;82;27604;-62
2022/12/27 07:14:10;;;;;;;11.53;3.65;;;;;;;2.12;100.00;100298.27;1731986;82;25569;-64
2022/12/27 07:16:36;;;;;;;10.18;3.70;;;;;;;2.12;100.00;100304.39;1706075;82;25627;-63
2022/12/27 07:19:06;;;;;;;6.10;2.70;;;;;;;2.13;100.00;100313.20;1670363;84;25744;-65
2022/12/27 07:21:32;;;;;;;11.88;3.00;;;;;;;2.15;100.00;100324.45;1703489;84;25669;-64
2022/12/27 07:23:58;;;;;;;8.93;2.62;;;;;;;2.13;100.00;100334.03;1695562;84;29793;-65
2022/12/27 07:26:30;;;;;;;4.60;2.30;;;;;;;2.13;100.00;100333.21;1703437;84;25576;-65
2022/12/27 07:29:02;;;;;;;9.90;2.62;;;;;;;2.14;100.00;100336.16;1703521;84;25665;-65
2022/12/27 07:31:33;;;;;;;11.33;2.83;;;;;;;2.12;100.00;100329.74;1703588;84;25613;-64
2022/12/27 07:34:04;;;;;;;8.95;2.52;;;;;;;2.14;100.00;100344.97;1703580;84;25626;-64
2022/12/27 07:36:36;;;;;;;11.68;2.85;;;;;;;2.12;100.00;100347.09;1703490;84;27587;-63
2022/12/27 07:39:08;;;;;;;14.45;10.15;;;;;;;2.13;100.00;100353.22;1703524;84;25776;-63
2022/12/27 07:41:36;;;;;;;7.42;2.17;;;;;;;2.16;100.00;100360.73;1703613;84;25418;-62
2022/12/27 07:44:09;;;;;;;10.60;3.08;;;;;;;2.14;100.00;100353.52;1703469;84;25529;-63
2022/12/27 07:46:36;;;;;;;11.05;2.70;;;;;;;2.17;100.00;100359.15;1683389;84;25425;-62
2022/12/27 07:49:04;;;;;;;8.48;2.98;;;;;;;2.23;100.00;100366.16;1703549;84;28054;-62
2022/12/27 07:51:30;;;;;;;9.23;2.67;;;;;;;2.29;100.00;100368.34;1703401;84;25735;-63
2022/12/27 07:54:07;;;;;;;7.90;3.22;;;;;;;2.35;100.00;100371.86;1703608;84;25466;-62
2022/12/27 07:56:33;;;;;;;8.85;2.45;;;;;;;2.39;100.00;100365.78;1703481;84;25469;-63
2022/12/27 07:59:01;;;;;;;12.58;10.28;;;;;;;2.47;100.00;100371.71;1703541;84;25571;-63
2022/12/27 08:04:19;;;;;;;7.97;2.50;;;;;;;2.53;100.00;100380.86;1703399;84;25443;-63
2022/12/27 08:06:49;;;;;;;7.60;2.15;;;;;;;2.57;100.00;100397.17;1703589;84;25501;-64
2022/12/27 08:09:26;;;;;;;8.05;2.52;;;;;;;2.57;100.00;100390.50;1703507;84;25608;-66
2022/12/27 08:11:56;;;;;;;11.73;4.47;;;;;;;2.55;100.00;100396.09;1703635;84;25611;-64
2022/12/27 08:14:22;;;;;;;17.42;4.00;;;;;;;2.57;100.00;100404.67;1703528;84;27536;-65
2022/12/27 08:16:50;;;;;;;8.65;2.25;;;;;;;2.58;100.00;100412.16;1728190;82;27282;-65
2022/12/27 08:19:17;;;;;;;10.78;2.25;;;;;;;2.59;100.00;100421.25;1732114;82;25450;-66
2022/12/27 08:21:43;;;;;;;8.68;4.08;;;;;;;2.61;100.00;100425.80;1701417;82;26050;-66
2022/12/27 08:24:09;;;;;;;11.18;4.28;;;;;;;2.59;100.00;100426.59;1732047;82;25400;-65
2022/12/27 08:26:35;;;;;;;11.00;3.02;;;;;;;2.60;100.00;100426.05;1731988;82;27602;-64
2022/12/27 08:29:02;;;;;;;12.07;2.45;;;;;;;2.60;100.00;100432.73;1732034;82;25931;-65
2022/12/27 08:31:28;;;;;;;8.75;3.27;;;;;;;2.63;100.00;100429.56;1731979;82;25470;-64
2022/12/27 08:33:56;;;;;;;10.25;6.47;;;;;;;2.67;100.00;100436.53;1731975;82;25871;-65
2022/12/27 08:36:22;;;;;;;14.25;3.02;;;;;;;2.72;100.00;100447.27;1732039;82;25412;-65
2022/12/27 08:38:48;;;;;;;9.60;2.87;;;;;;;2.72;100.00;100446.73;1732012;82;27621;-65
2022/12/27 08:41:22;;;;;;;8.58;2.50;;;;;;;2.78;100.00;100442.26;1731996;82;25623;-65
2022/12/27 08:43:48;;;;;;;8.93;2.92;;;;;;;2.82;100.00;100458.59;1732016;82;25571;-64
2022/12/27 08:46:14;;;;;;;11.22;3.02;;;;;;;2.80;100.00;100452.16;1731983;82;25528;-65
2022/12/27 08:48:41;;;;;;;9.68;2.77;;;;;;;2.83;100.00;100450.33;1732092;82;25701;-64
2022/12/27 08:51:10;;;;;;;10.32;3.45;;;;;;;2.87;100.00;100451.95;1732026;82;26712;-65
2022/12/27 08:53:41;;;;;;;18.27;3.70;;;;;;;2.86;100.00;100455.16;1731883;82;25471;-66
2022/12/27 08:56:08;;;;;;;10.25;3.98;;;;;;;2.90;100.00;100460.27;1732042;82;25524;-66
2022/12/27 08:58:34;;;;;;;11.73;3.87;;;;;;;2.91;100.00;100461.89;1732008;82;25487;-65
2022/12/27 09:01:12;;;;;;;7.30;3.45;;;;;;;2.94;100.00;100462.70;1731969;82;25641;-64
2022/12/27 09:03:38;;;;;;;11.08;3.62;;;;;;;2.97;100.00;100461.40;1731988;82;29818;-64
2022/12/27 09:06:14;;;;;;;43.00;39.05;;;;;;;2.99;100.00;100465.95;1731959;82;25272;-63
2022/12/27 09:08:48;;;;;;;84.72;78.15;;;;;;;2.99;100.00;100471.30;1744658;81;25513;-63
2022/12/27 09:11:28;;;;;;;81.60;75.75;;;;;;;3.02;100.00;100478.02;1744653;81;25240;-64
2022/12/27 09:13:59;;;;;;;68.87;63.78;;;;;;;3.04;100.00;100476.69;1744645;81;25602;-64
2022/12/27 09:16:34;;;;;;;87.97;81.12;;;;;;;3.09;100.00;100478.61;1712981;83;27292;-63
2022/12/27 09:19:04;;;;;;;85.75;79.07;;;;;;;3.12;100.00;100474.09;1711864;83;25569;-62
2022/12/27 09:21:35;;;;;;;87.42;80.65;;;;;;;3.16;100.00;100479.19;1711918;83;25655;-62
2022/12/27 09:24:11;;;;;;;83.75;77.42;;;;;;;3.18;100.00;100471.72;1684230;83;25808;-63
2022/12/27 09:26:42;;;;;;;82.65;76.20;;;;;;;3.21;100.00;100480.57;1711932;83;25625;-63
2022/12/27 09:29:13;;;;;;;81.53;75.37;;;;;;;3.22;100.00;100482.20;1711814;83;27611;-63
2022/12/27 09:31:40;;;;;;;87.95;80.57;;;;;;;3.21;100.00;100478.44;1711933;83;25176;-63
2022/12/27 09:34:11;;;;;;;85.40;79.15;;;;;;;3.18;100.00;100482.41;1675172;85;25571;-64
2022/12/27 09:36:40;;;;;;;82.75;76.25;;;;;;;3.18;100.00;100483.75;1675134;85;25606;-64
2022/12/27 09:39:12;;;;;;;83.12;76.90;;;;;;;3.20;100.00;100480.82;1675010;85;25590;-64
2022/12/27 09:42:02;;;;;;;82.35;76.47;;;;;;;3.14;100.00;100484.79;1674400;85;27733;-65
2022/12/27 09:44:40;;;;;;;81.55;75.67;;;;;;;3.15;100.00;100490.94;1675082;85;25737;-64
2022/12/27 09:47:26;;;;;;;81.22;75.42;;;;;;;3.15;100.00;100485.59;1659366;85;25630;-63
2022/12/27 09:50:01;;;;;;;79.55;73.67;;;;;;;3.15;100.00;100489.09;1673854;85;25679;-66
2022/12/27 09:52:36;;;;;;;79.35;73.80;;;;;;;3.15;100.00;100488.26;1674120;85;25673;-64
2022/12/27 09:55:33;;;;;;;82.30;76.40;;;;;;;3.16;100.00;100488.55;1674073;85;28169;-64
2022/12/27 09:58:14;;;;;;;80.22;74.65;;;;;;;3.18;100.00;100489.92;1645630;85;25937;-64
2022/12/27 10:00:44;;;;;;;79.03;73.67;;;;;;;3.21;100.00;100500.63;1667596;85;25485;-64
2022/12/27 10:03:10;;;;;;;57.73;53.38;;;;;;;3.24;100.00;100501.99;1675006;85;25680;-63
2022/12/27 10:05:40;;;;;;;82.30;76.60;;;;;;;3.25;100.00;100503.59;1675078;85;25469;-64
2022/12/27 10:08:42;;;;;;;81.87;75.92;;;;;;;3.27;100.00;100498.78;1675198;85;27605;-64
2022/12/27 10:11:35;;;;;;;79.30;73.60;;;;;;;3.28;100.00;100499.88;1638542;87;25562;-65
2022/12/27 10:14:41;;;;;;;84.35;78.30;;;;;;;3.30;100.00;100506.30;1638531;87;25668;-64
2022/12/27 10:17:18;;;;;;;80.97;75.03;;;;;;;3.31;100.00;100502.04;1642032;87;26002;-64
2022/12/27 10:19:58;;;;;;;66.47;61.18;;;;;;;3.33;100.00;100505.80;1642857;86;25631;-63
2022/12/27 10:22:39;;;;;;;8.23;3.62;;;;;;;3.35;100.00;100501.82;1643650;87;27480;-65
2022/12/27 10:25:14;;;;;;;52.67;48.33;;;;;;;3.36;100.00;100500.74;1641737;86;26075;-62
2022/12/27 10:27:41;;;;;;;34.27;31.52;;;;;;;3.42;100.00;100508.80;1643559;87;25571;-65
2022/12/27 10:30:21;;;;;;;82.20;76.50;;;;;;;3.45;100.00;100506.96;1643466;87;25587;-64
2022/12/27 10:32:49;;;;;;;83.12;77.22;;;;;;;3.47;100.00;100505.63;1643724;87;25511;-63
2022/12/27 10:35:19;;;;;;;83.50;77.45;;;;;;;3.51;100.00;100503.27;1643489;87;27560;-62
2022/12/27 10:37:48;;;;;;;83.70;77.03;;;;;;;3.56;100.00;100501.98;1643239;87;25666;-63
2022/12/27 10:40:26;;;;;;;84.70;78.75;;;;;;;3.61;100.00;100507.87;1643658;87;25478;-63
2022/12/27 10:43:18;;;;;;;81.28;75.47;;;;;;;3.65;100.00;100509.78;1643179;86;25621;-62
2022/12/27 10:45:45;;;;;;;83.30;77.17;;;;;;;3.69;100.00;100514.08;1644277;86;25486;-63
2022/12/27 10:48:25;;;;;;;82.57;76.67;;;;;;;3.74;100.00;100510.91;1652714;86;27514;-63
2022/12/27 10:51:00;;;;;;;82.60;76.35;;;;;;;3.84;100.00;100518.73;1652684;86;25597;-64
2022/12/27 10:53:40;;;;;;;81.60;75.92;;;;;;;4.03;100.00;100514.55;1652723;86;25572;-63
2022/12/27 10:56:21;;;;;;;83.33;77.53;;;;;;;4.15;100.00;100526.39;1652647;86;27721;-63
2022/12/27 10:58:52;;;;;;;87.10;80.28;;;;;;;4.18;100.00;100517.05;1652204;85;25336;-65
2022/12/27 11:01:29;;;;;;;83.22;76.80;;;;;;;4.29;100.00;100517.35;1652967;86;26900;-64
2022/12/27 11:04:16;;;;;;;81.05;75.08;;;;;;;4.38;100.00;100517.69;1674143;85;25485;-63
2022/12/27 11:06:51;;;;;;;83.97;77.62;;;;;;;4.41;100.00;100515.80;1674196;85;25415;-63
2022/12/27 11:09:38;;;;;;;82.10;75.78;;;;;;;4.42;100.00;100525.45;1673473;85;27657;-62
2022/12/27 11:12:27;;;;;;;81.90;75.90;;;;;;;4.39;100.00;100526.80;1673107;85;25652;-61
2022/12/27 11:15:19;;;;;;;84.85;78.22;;;;;;;4.36;100.00;100532.67;1647298;85;27592;-62
2022/12/27 11:17:52;;;;;;;79.40;73.85;;;;;;;4.31;100.00;100521.94;1706963;83;25745;-62
2022/12/27 11:20:43;;;;;;;85.60;79.10;;;;;;;4.27;100.00;100518.16;1712065;83;25570;-62
2022/12/27 11:23:18;;;;;;;81.85;75.67;;;;;;;4.23;100.00;100511.72;1711368;83;25608;-60
2022/12/27 11:25:54;;;;;;;44.77;41.18;;;;;;;4.18;100.00;100516.51;1712133;83;25419;-64
2022/12/27 11:28:37;;;;;;;9.38;3.42;;;;;;;4.18;100.00;100521.06;1709532;83;28059;-62
2022/12/27 11:31:20;;;;;;;11.53;6.40;;;;;;;4.13;100.00;100525.86;1711970;83;25456;-63
2022/12/27 11:33:55;;;;;;;74.42;68.55;;;;;;;4.15;100.00;100517.56;1667378;85;25650;-64
2022/12/27 11:36:33;;;;;;;85.60;79.62;;;;;;;4.14;100.00;100518.63;1674977;85;25603;-63
2022/12/27 11:39:01;;;;;;;83.20;76.72;;;;;;;4.14;100.00;100529.33;1675137;85;25521;-63
2022/12/27 11:41:51;;;;;;;82.62;76.33;;;;;;;4.09;99.01;100530.12;1674980;85;27458;-62
2022/12/27 11:44:35;;;;;;;83.25;76.77;;;;;;;4.06;99.13;100519.39;1646048;85;25555;-65
2022/12/27 11:47:18;;;;;;;80.25;74.65;;;;;;;4.09;97.69;100524.77;1675174;85;25657;-64
2022/12/27 11:49:56;;;;;;;84.80;78.75;;;;;;;4.16;98.98;100533.91;1673855;84;25683;-62
2022/12/27 11:52:52;;;;;;;77.05;71.00;;;;;;;4.21;96.91;100540.09;1675113;85;25601;-70
2022/12/27 11:55:55;;;;;;;83.20;77.25;;;;;;;4.22;94.81;100552.94;1613706;88;27524;-65
2022/12/27 11:58:54;;;;;;;87.00;80.40;;;;;;;4.23;97.10;100553.22;1613702;88;25816;-65
2022/12/27 12:01:59;;;;;;;84.07;77.90;;;;;;;4.23;96.07;100554.02;1613756;88;25480;-65
2022/12/27 12:04:51;;;;;;;79.55;74.05;;;;;;;4.21;94.97;100555.36;1613723;88;25656;-65
2022/12/27 12:07:33;;;;;;;86.72;80.38;;;;;;;4.23;95.58;100555.36;1613043;88;25619;-67
2022/12/27 12:10:35;;;;;;;86.45;80.15;;;;;;;4.24;93.68;100557.49;1613751;88;27182;-64
2022/12/27 12:13:38;;;;;;;86.10;79.92;;;;;;;4.23;94.08;100562.59;1613536;88;25459;-64
2022/12/27 12:16:36;;;;;;;88.10;81.90;;;;;;;4.22;94.33;100559.63;1613499;88;25606;-64
2022/12/27 12:19:34;;;;;;;83.97;78.00;;;;;;;4.15;95.16;100568.44;1614751;87;25532;-64
2022/12/27 12:22:26;;;;;;;66.53;61.75;;;;;;;4.09;92.58;100570.28;1613815;88;25604;-63
2022/12/27 12:25:04;;;;;;;25.75;23.35;;;;;;;4.01;91.84;100572.91;1613643;88;27506;-65
2022/12/27 12:28:17;;;;;;;18.87;17.27;;;;;;;3.95;92.22;100581.98;1670880;85;25413;-64
2022/12/27 12:31:14;;;;;;;60.38;56.23;;;;;;;3.91;93.55;100594.25;1644784;85;25785;-62
2022/12/27 12:34:13;;;;;;;84.22;78.37;;;;;;;3.82;92.96;100581.08;1674985;85;25558;-63
2022/12/27 12:37:01;;;;;;;91.80;85.45;;;;;;;3.77;92.85;100580.50;1675014;85;25427;-66
2022/12/27 12:39:52;;;;;;;89.52;82.57;;;;;;;3.74;93.25;100588.49;1645879;85;27677;-64
2022/12/27 12:42:36;;;;;;;89.47;82.53;;;;;;;3.69;93.55;100587.12;1674817;85;25403;-63
2022/12/27 12:45:20;;;;;;;86.37;79.92;;;;;;;3.66;94.22;100593.00;1674982;85;25592;-65
2022/12/27 12:48:24;;;;;;;86.53;80.00;;;;;;;3.62;93.05;100590.55;1674013;85;25627;-63
2022/12/27 12:51:27;;;;;;;83.40;77.50;;;;;;;3.58;93.85;100583.30;1675060;85;25412;-66
2022/12/27 12:54:32;;;;;;;86.22;79.92;;;;;;;3.54;92.52;100589.66;1674974;85;27101;-66
2022/12/27 12:57:28;;;;;;;87.00;80.55;;;;;;;3.49;93.97;100583.77;1644791;85;26283;-64
2022/12/27 13:00:29;;;;;;;88.92;82.33;;;;;;;3.49;93.81;100588.28;1673320;85;25502;-63
2022/12/27 13:03:23;;;;;;;89.10;82.70;;;;;;;3.46;94.03;100589.62;1674871;85;25580;-64
2022/12/27 13:06:08;;;;;;;88.95;82.30;;;;;;;3.44;93.49;100579.70;1675014;85;25415;-63
2022/12/27 13:08:57;;;;;;;87.65;81.12;;;;;;;3.39;93.58;100594.38;1702884;83;27517;-64
2022/12/27 13:11:49;;;;;;;62.43;57.73;;;;;;;3.37;93.44;100589.78;1703075;84;25575;-64
2022/12/27 13:14:32;;;;;;;82.50;76.80;;;;;;;3.34;92.28;100596.45;1702158;84;25525;-64
2022/12/27 13:17:19;;;;;;;87.50;81.40;;;;;;;3.33;92.93;100603.39;1679952;84;25528;-63
2022/12/27 13:20:23;;;;;;;86.30;80.10;;;;;;;3.29;92.86;100595.61;1705589;84;25468;-64
2022/12/27 13:23:14;;;;;;;86.17;79.65;;;;;;;3.28;92.76;100603.34;1706461;84;27871;-63
2022/12/27 13:25:49;;;;;;;85.22;78.97;;;;;;;3.26;92.72;100603.59;1706534;84;25599;-63
2022/12/27 13:28:35;;;;;;;86.35;79.75;;;;;;;3.24;92.80;100596.36;1706721;84;25571;-63
2022/12/27 13:31:40;;;;;;;87.92;81.00;;;;;;;3.26;92.98;100596.11;1706756;84;25885;-63
2022/12/27 13:35:00;;;;;;;87.12;80.77;;;;;;;3.25;93.55;100606.01;1706944;84;25653;-64
2022/12/27 13:37:58;;;;;;;88.00;81.40;;;;;;;3.24;93.46;100604.38;1705799;84;29899;-63
2022/12/27 13:41:03;;;;;;;88.33;81.87;;;;;;;3.30;93.76;100619.94;1707015;84;25797;-63
2022/12/27 13:43:55;;;;;;;87.75;81.15;;;;;;;3.30;93.76;100619.94;1705462;84;25483;-65
2022/12/27 13:46:49;;;;;;;92.40;85.30;;;;;;;3.21;93.89;100615.57;1683113;85;25752;-63